x

9432780 - Charleston, Or (chao3) Weather Station

11:36pm - Fri 28th Nov 2014 All times are PST. -8 hours from GMT.

  • Wind
    16mph, 20mph gusts
  • Sea Temp 55°f
  • Sea Pressure 1006.6mb
  • 9432780 - Charleston, Or
  • 9432780 - Charleston, Or

More Historic Weather Station data

Upgrade to MSW Pro to gain access to the past 30 days of data for over 8000 Wavebouys and Weather Stations around the globe.

Join Pro

Comparision Forecast

View Surf forecast
   
Fri 11/28 11:36pm 16 20 mph 1006.6mb 55f
11:30pm 14 18 mph 1006.6mb 55f
11:24pm 16 21 mph 1006.6mb 55f
11:18pm 13 20 mph 1006.5mb 55f
11:12pm 17 25 mph 1006.3mb 55f
11:06pm 13 23 mph 1006.1mb 55f
11:00pm 15 18 mph 1006mb 55f
10:36pm 17 24 mph 1005.9mb 56f
10:30pm 15 20 mph 1005.9mb 56f
10:24pm 14 21 mph 1005.8mb 56f
10:18pm 18 24 mph 1005.7mb 56f
10:12pm 20 22 mph 1005.6mb 56f
10:06pm 14 23 mph 1005.6mb 56f
10:00pm 21 23 mph 1005.6mb 56f
9:36pm 17 22 mph 1005.4mb 56f
9:30pm 17 21 mph 1005.3mb 56f
9:24pm 18 21 mph 1005.3mb 56f
9:18pm 22 24 mph 1005.3mb 56f
9:12pm 21 23 mph 1005.2mb 56f
9:06pm 16 21 mph 1005.2mb 56f
9:00pm 17 20 mph 1005.2mb 56f
8:36pm 16 20 mph 1004.8mb 56f
8:30pm 17 23 mph 1004.7mb 56f
8:24pm 17 21 mph 1004.5mb 56f
8:18pm 17 22 mph 1004.6mb 56f
8:12pm 17 21 mph 1004.6mb 56f
8:06pm 18 22 mph 1004.5mb 56f
8:00pm 20 24 mph 1004.3mb 56f
7:36pm 20 25 mph 1004.1mb 56f
7:30pm 23 29 mph 1004mb 56f
7:24pm 25 29 mph 1003.7mb 56f
7:18pm 26 31 mph 1003.6mb 56f
7:12pm 24 31 mph 1003.6mb 56f
7:06pm 11 24 mph 1003.6mb 56f
7:00pm 9 18 mph 1003.6mb 56f
6:36pm  -  mph - 56f
6:30pm  -  mph - 56f
6:24pm  -  mph - 56f
6:18pm  -  mph - 56f
6:12pm  -  mph - 56f
6:06pm  -  mph - 56f
6:00pm  -  mph - 56f
5:36pm 7 14 mph 1003.9mb 56f
5:30pm 6 16 mph 1003.9mb 56f
5:24pm 8 16 mph 1003.9mb 56f
5:18pm 8 20 mph 1004mb 56f
5:12pm 7 13 mph 1004mb 56f
5:06pm 6 15 mph 1004mb 56f
5:00pm 6 13 mph 1004mb 56f
4:36pm 9 24 mph 1004.1mb 56f
4:30pm 9 25 mph 1004.3mb 56f
4:24pm 6 10 mph 1004.2mb 56f
4:18pm 5 17 mph 1004.2mb 56f
4:12pm 6 16 mph 1004.3mb 56f
4:06pm 6 17 mph 1004.3mb 56f
4:00pm 8 21 mph 1004.3mb 56f
3:36pm 6 13 mph 1004.8mb 56f
3:30pm 6 15 mph 1004.8mb 56f
3:24pm 6 11 mph 1004.9mb 56f
3:18pm 7 13 mph 1005mb 56f
3:12pm 5 17 mph 1005mb 56f
3:06pm 10 28 mph 1005mb 56f
3:00pm 6 14 mph 1005mb 56f
2:36pm 7 20 mph 1005mb 56f
2:30pm 6 16 mph 1005mb 56f
2:24pm 6 14 mph 1004.9mb 56f
2:18pm 6 16 mph 1004.9mb 56f
2:12pm 6 15 mph 1004.8mb 56f
2:06pm 6 20 mph 1004.8mb 56f
2:00pm 6 15 mph 1004.9mb 56f
1:36pm 7 21 mph 1005.1mb 56f
1:30pm 6 22 mph 1005.1mb 56f
1:24pm 7 24 mph 1005.1mb 56f
1:18pm 7 14 mph 1005.1mb 56f
1:12pm 7 18 mph 1005.1mb 56f
1:06pm 5 11 mph 1005.2mb 56f
1:00pm 6 20 mph 1005.2mb 56f
12:36pm 7 16 mph 1005mb 56f
12:30pm 8 15 mph 1005.1mb 56f
12:24pm 6 15 mph 1005.1mb 56f
12:18pm 6 18 mph 1005.1mb 56f
12:12pm 5 13 mph 1005.1mb 56f
12:06pm 9 18 mph 1005.1mb 56f
12:00pm 8 20 mph 1005.1mb 56f
11:36am 7 18 mph 1005mb 56f
11:30am 9 20 mph 1005.1mb 56f
11:24am 6 17 mph 1004.9mb 56f
11:18am 8 18 mph 1005mb 56f
11:12am 8 18 mph 1005mb 56f
11:06am 6 21 mph 1005.1mb 56f
11:00am 8 24 mph 1005mb 56f
10:36am 7 21 mph 1005.3mb 56f
10:30am 7 23 mph 1005.2mb 56f
10:24am 7 16 mph 1005.1mb 56f
10:18am 7 15 mph 1005.2mb 56f
10:12am 9 22 mph 1005.2mb 56f
10:06am 7 16 mph 1005.2mb 56f
10:00am 8 16 mph 1005.2mb 56f
9:36am 7 10 mph 1005.3mb 56f
9:30am 5 17 mph 1005.4mb 56f
9:24am 6 14 mph 1005.4mb 56f
9:18am 6 16 mph 1005.7mb 56f
9:12am 3 14 mph 1005.5mb 56f
9:06am 8 17 mph 1005.4mb 56f
9:00am 6 15 mph 1005.4mb 56f
8:36am 2 7 mph 1005.4mb 56f
8:30am 1 5 mph 1005.4mb 56f
8:24am 2 5 mph 1005.3mb 56f
8:18am 1 3 mph 1005.4mb 56f
8:12am 2 5 mph 1005.6mb 56f
8:06am 2 3 mph 1005.5mb 56f
8:00am 3 8 mph 1005.6mb 56f
7:36am 3 6 mph 1005.8mb 56f
7:30am 2 7 mph 1005.9mb 56f
7:24am 2 7 mph 1006mb 56f
7:18am 2 11 mph 1006.1mb 56f
7:12am 3 7 mph 1006.2mb 56f
7:06am 3 8 mph 1006.2mb 56f
7:00am 6 14 mph 1006.4mb 56f
6:36am 5 10 mph 1006.5mb 56f
6:30am 3 9 mph 1006.6mb 56f
6:24am 5 11 mph 1006.8mb 56f
6:18am 5 20 mph 1006.8mb 56f
6:12am 6 20 mph 1007.1mb 56f
6:06am 5 8 mph 1007mb 56f
6:00am 3 15 mph 1007.1mb 56f
5:36am 5 16 mph 1007.6mb 56f
5:30am 2 8 mph 1007.4mb 56f
5:24am 3 11 mph 1007.4mb 56f
5:18am 5 11 mph 1007.5mb 56f
5:12am 5 15 mph 1007.6mb 56f
5:06am 6 16 mph 1007.6mb 56f
5:00am 5 15 mph 1007.6mb 56f
4:36am 3 10 mph 1007.6mb 56f
4:30am 3 14 mph 1007.7mb 56f
4:24am 2 9 mph 1007.7mb 56f
4:18am 2 5 mph 1007.8mb 56f
4:12am 3 6 mph 1008mb 56f
4:06am 1 3 mph 1007.7mb 56f
4:00am 2 5 mph 1007.4mb 56f
3:36am 3 11 mph 1008.1mb 56f
3:30am 3 14 mph 1007.9mb 56f
3:24am 1 14 mph 1007.9mb 56f
3:18am 3 11 mph 1008mb 56f
3:12am 3 14 mph 1008.2mb 56f
3:06am 3 9 mph 1008.3mb 56f
3:00am 5 10 mph 1008.2mb 56f
2:36am 2 8 mph 1008.5mb 56f
2:30am 3 10 mph 1008.6mb 56f
2:24am 3 9 mph 1008.7mb 56f
2:18am 3 10 mph 1008.8mb 56f
2:12am 5 18 mph 1008.6mb 56f
2:06am 6 15 mph 1008.6mb 56f
2:00am 7 14 mph 1009mb 56f
1:36am 5 10 mph 1009.8mb 55f
1:30am 6 15 mph 1010.1mb 55f
1:24am 5 11 mph 1010mb 55f
1:18am 6 11 mph 1010mb 55f
1:12am 5 11 mph 1010mb 55f
1:06am 3 8 mph 1009.9mb 55f
1:00am 3 7 mph 1009.9mb 55f
12:36am 2 7 mph 1009.8mb 55f
12:30am 3 7 mph 1009.7mb 55f
12:24am 3 9 mph 1009.9mb 55f
12:18am 3 9 mph 1010mb 55f
12:12am 6 9 mph 1010.1mb 55f
12:06am 2 9 mph 1010.1mb 55f
12:00am 2 6 mph 1010.2mb 55f
Thu 11/27 11:54pm 2 10 mph 1010.1mb 55f
11:48pm 3 10 mph 1010.3mb 55f
11:36pm 5 11 mph 1010.4mb 55f
11:30pm 2 6 mph 1010.4mb 55f
11:24pm 3 7 mph 1010.6mb 55f
11:18pm 3 7 mph 1010.7mb 55f
11:12pm 2 8 mph 1010.8mb 55f
11:06pm 2 5 mph 1010.9mb 55f
11:00pm 2 9 mph - -
10:54pm 2 7 mph 1010.9mb 55f
10:48pm 3 8 mph 1011mb 55f
10:36pm 3 8 mph 1011.1mb 55f
10:30pm 1 6 mph 1011.1mb 56f
10:24pm 3 6 mph 1011.1mb 56f
10:18pm 1 9 mph 1011mb 56f
10:12pm 3 9 mph 1010.4mb 56f
10:06pm 6 10 mph 1010.6mb 56f
10:00pm 3 9 mph 1010.8mb 56f
9:54pm 3 10 mph 1010.9mb 56f
9:48pm 3 8 mph 1011.2mb 56f
9:36pm 2 11 mph 1011.4mb 56f
9:30pm 5 11 mph 1010.9mb 56f
9:24pm 6 15 mph 1010mb 56f
9:18pm 7 11 mph 1010.5mb 56f
9:12pm 3 13 mph 1010.8mb 56f
9:06pm 6 11 mph 1010.6mb 56f
9:00pm 5 10 mph 1011.1mb 56f
8:54pm 2 8 mph 1011.4mb 56f
8:48pm 2 8 mph 1011.4mb 56f
8:36pm 3 10 mph 1011.1mb 56f
8:30pm 3 8 mph 1011.1mb 56f
8:24pm 3 5 mph 1011.6mb 56f
8:18pm 2 3 mph 1011.9mb 56f
8:12pm 3 7 mph 1012mb 56f
8:06pm 1 3 mph 1011.9mb 56f
8:00pm 1 5 mph 1012.1mb 56f
7:54pm 1 3 mph 1012.3mb 56f
7:48pm 1 2 mph 1012.5mb 56f
7:36pm 1 3 mph 1012.5mb 56f
7:30pm 2 5 mph 1012.3mb 56f
7:24pm 2 5 mph 1012.3mb 56f
7:18pm 2 5 mph 1012.6mb 56f
7:12pm 1 2 mph 1012.7mb 56f
7:06pm  -  3 mph 1012.9mb 56f
7:00pm 1 5 mph 1012.8mb 56f
6:54pm  -  2 mph 1012.9mb 56f
6:48pm  -  2 mph 1013mb 56f
6:36pm 2 3 mph 1013.1mb 56f
6:30pm  -  2 mph 1013.1mb 56f
6:24pm  -  3 mph 1013.1mb 56f
6:18pm 2 6 mph 1013.1mb 56f
6:12pm  -  5 mph 1013.1mb 56f
6:06pm 2 3 mph 1013.1mb 56f
6:00pm 2 5 mph 1013.2mb 56f
5:54pm 2 6 mph 1013.2mb 56f
5:48pm 3 7 mph 1013.2mb 56f
5:36pm 2 3 mph 1013.5mb 56f
5:30pm 2 5 mph 1013.4mb 56f
5:24pm 1 7 mph 1013.5mb 56f
5:18pm 2 5 mph 1013.5mb 56f
5:12pm 2 5 mph 1013.6mb 56f
5:06pm  -  2 mph 1013.7mb 56f
5:00pm  -  3 mph 1013.8mb 56f
4:54pm 2 5 mph 1013.9mb 56f
4:48pm 1 3 mph 1013.9mb 56f
4:36pm  -  2 mph 1014.1mb 56f
4:30pm 1 3 mph 1014.2mb 56f
4:24pm 2 5 mph 1014.2mb 56f
4:18pm  -  3 mph 1014.2mb 56f
4:12pm 1 2 mph 1014.2mb 56f
4:06pm  -  6 mph 1014.2mb 56f
4:00pm 1 6 mph 1014.1mb 56f
3:54pm 2 8 mph 1014.3mb 56f
3:48pm 2 6 mph 1014.6mb 56f
3:36pm 1 6 mph 1014.7mb 56f
3:30pm 2 8 mph 1014.6mb 56f
3:24pm 3 6 mph 1014.7mb 56f
3:18pm 2 10 mph 1014.6mb 56f
3:12pm 1 9 mph 1014.8mb 56f
3:06pm 2 8 mph 1015mb 56f
3:00pm 2 8 mph 1014.8mb 56f
2:54pm 2 6 mph 1014.9mb 56f
2:48pm 1 8 mph 1014.9mb 56f
2:36pm 2 5 mph 1014.8mb 56f
2:30pm 3 8 mph 1014.8mb 56f
2:24pm 2 3 mph 1014.8mb 56f
2:18pm 2 8 mph 1014.9mb 56f
2:12pm 1 5 mph 1014.6mb 56f
2:06pm 2 6 mph 1015.1mb 56f
2:00pm 3 9 mph 1015mb 56f
1:54pm 3 6 mph 1015mb 56f
1:48pm 3 8 mph 1015.1mb 56f
1:36pm 5 9 mph 1015.1mb 56f
1:30pm 6 9 mph 1015.1mb 56f
1:24pm 3 10 mph 1015.1mb 56f
1:18pm 2 7 mph 1015.3mb 56f
1:12pm 2 10 mph 1015.4mb 56f
1:06pm 3 8 mph 1015.1mb 56f
1:00pm 3 9 mph 1015.3mb 56f
12:54pm 5 10 mph 1015.7mb 56f
12:48pm 3 9 mph 1015.7mb 56f
12:36pm 2 10 mph 1015.4mb 56f
12:30pm 5 10 mph 1015.5mb 56f
12:24pm 2 9 mph 1016.1mb 56f
12:18pm 5 13 mph 1016.3mb 56f
12:12pm 3 9 mph 1015.8mb 56f
12:06pm 3 10 mph 1016.2mb 56f
12:00pm 6 11 mph 1016.2mb 56f
11:54am 3 10 mph 1016.4mb 56f
11:48am 3 7 mph 1016.2mb 56f
11:36am 2 7 mph 1016.2mb 55f
11:30am 1 7 mph 1016.4mb 55f
11:24am 2 8 mph 1016.5mb 55f
11:18am 3 7 mph 1016.2mb 56f
11:12am 2 9 mph 1016.4mb 56f
11:06am 3 10 mph 1016.3mb 56f
11:00am 6 15 mph 1016.3mb 56f
10:54am 2 14 mph 1016.5mb 56f
10:48am 5 11 mph 1016.5mb 56f
10:36am 6 13 mph 1016.5mb 55f
10:30am 5 14 mph 1016.7mb 55f
10:24am 6 13 mph 1016.9mb 55f
10:18am 6 13 mph - -
10:12am 7 10 mph 1017.1mb 55f
10:06am 2 7 mph 1016.9mb 55f
10:00am 3 11 mph 1016.8mb 56f
9:54am 2 6 mph 1016.6mb 56f
9:48am 2 6 mph 1016.6mb 56f
9:36am 2 5 mph 1016.6mb 56f
9:30am 2 6 mph 1016.1mb 56f
9:24am 2 8 mph 1015.6mb 56f
9:18am 2 10 mph 1015.6mb 56f
9:12am 3 7 mph 1015.7mb 56f
9:06am 2 8 mph 1015.6mb 56f
9:00am 2 9 mph 1015.8mb 56f
8:54am 2 9 mph 1015.8mb 56f
8:48am 2 8 mph 1015.9mb 56f
8:36am 3 15 mph 1015.8mb 56f
8:30am 5 14 mph 1015.7mb 56f
8:24am 6 13 mph 1015.5mb 56f
8:18am 7 16 mph 1015.6mb 56f
8:12am 5 13 mph 1015.8mb 56f
8:06am 6 14 mph 1015.7mb 56f
8:00am 3 13 mph 1015.7mb 56f
7:54am 3 11 mph 1015.6mb 56f
7:48am 3 10 mph 1015.6mb 56f
7:36am 3 11 mph 1015.1mb 56f
7:30am 3 7 mph 1015.2mb 56f
7:24am 2 8 mph 1015.3mb 56f
7:18am 3 9 mph 1015.1mb 56f
7:12am 2 14 mph 1015.2mb 56f
7:06am 5 9 mph 1015.4mb 56f
7:00am 5 18 mph 1015.2mb 56f
6:54am 5 13 mph 1015.2mb 56f
6:48am 6 16 mph 1015.4mb 56f
6:36am 3 8 mph 1015.4mb 56f
6:30am 2 13 mph 1015.4mb 56f
6:24am 5 9 mph 1015.4mb 56f
6:18am 3 17 mph 1015.3mb 56f
6:12am 5 14 mph 1015.4mb 56f
6:06am 7 15 mph 1015.4mb 56f
6:00am 3 9 mph 1015.5mb 56f
5:54am 7 14 mph 1015.6mb 56f
5:48am 5 18 mph 1015.8mb 56f
5:36am 3 9 mph 1015.4mb 56f
5:30am 2 8 mph 1015.1mb 56f
5:24am 5 8 mph 1015.3mb 56f
5:18am 5 11 mph 1015.2mb 56f
5:12am 3 7 mph 1015.1mb 56f
5:06am 3 15 mph 1015.2mb 56f
5:00am 5 13 mph 1015mb 56f
4:54am 7 17 mph 1015.2mb 56f
4:48am 6 18 mph 1015.5mb 56f
4:36am 8 15 mph 1015.4mb 56f
4:30am 6 11 mph 1015.5mb 56f
4:24am 9 23 mph 1015.5mb 56f
4:18am 3 13 mph 1015.5mb 56f
4:12am 5 13 mph 1015.6mb 56f
4:06am 5 9 mph 1015.8mb 56f
4:00am 6 14 mph 1015.9mb 56f
3:54am 7 15 mph 1015.9mb 56f
3:48am 5 11 mph 1015.8mb 56f
3:36am 8 18 mph 1016mb 56f
3:30am 6 14 mph 1015.9mb 56f
3:24am 7 15 mph 1015.9mb 56f
3:18am 7 17 mph 1016mb 56f
3:12am 7 16 mph 1016.1mb 56f
3:06am 5 11 mph 1016.3mb 56f
3:00am 5 14 mph 1016.3mb 56f
2:54am 6 15 mph 1016.4mb 56f
2:48am 6 15 mph 1016.4mb 56f
2:36am 7 13 mph 1016.2mb 56f
2:30am 3 14 mph 1016.2mb 56f
2:24am 6 13 mph 1016.2mb 56f
2:18am 5 13 mph 1016.3mb 56f
2:12am 3 11 mph 1016.4mb 56f
2:06am 2 20 mph 1016.3mb 56f
2:00am 5 14 mph 1016.3mb 56f
1:54am 7 14 mph 1016.4mb 56f
1:48am 3 11 mph 1016.6mb 56f
1:36am 6 14 mph 1016.9mb 56f
1:30am 5 13 mph 1016.7mb 56f
1:24am 3 14 mph 1016.7mb 56f
1:18am 5 14 mph 1016.8mb 56f
1:12am 6 11 mph 1016.8mb 56f
1:06am 6 17 mph 1016.6mb 56f
1:00am 5 15 mph 1016.4mb 56f
12:54am 6 20 mph 1016.5mb 55f
12:48am 9 17 mph 1016.7mb 55f
12:36am 10 20 mph 1016.8mb 55f
12:30am 7 20 mph 1016.7mb 55f
12:24am 5 18 mph 1016.8mb 55f
12:18am 5 15 mph 1016.8mb 55f
12:12am 6 17 mph 1016.7mb 55f
12:06am 7 21 mph 1016.7mb 55f
12:00am 6 17 mph 1016.9mb 55f
Wed 11/26 11:54pm 5 13 mph 1017mb 55f
11:48pm 6 15 mph 1017.1mb 55f
11:36pm 6 16 mph 1017.1mb 55f
11:30pm 7 15 mph 1017.3mb 55f
11:24pm 7 18 mph 1017.1mb 55f
11:18pm 6 15 mph 1017.2mb 55f
11:12pm 7 14 mph 1017.1mb 55f
11:06pm 8 17 mph 1017.1mb 55f
11:00pm 6 16 mph 1017.2mb 55f
10:54pm 8 17 mph 1017.5mb 55f
10:48pm 5 15 mph 1017.5mb 55f
10:36pm 5 13 mph 1017.3mb 55f
10:30pm 6 11 mph 1017.1mb 55f
10:24pm 3 9 mph 1016.6mb 55f
10:18pm 5 16 mph 1016.4mb 55f
10:12pm 5 21 mph 1016.2mb 55f
10:06pm 6 17 mph 1017.1mb 55f
10:00pm 6 14 mph 1017.5mb 55f
9:54pm 7 14 mph 1017.7mb 55f
9:48pm 8 17 mph 1017.5mb 55f
9:36pm 8 20 mph 1017.7mb 55f
9:30pm 8 15 mph 1017.1mb 56f
9:24pm 9 18 mph 1016.8mb 56f
9:18pm 7 20 mph 1016.9mb 56f
9:12pm 8 20 mph 1017.9mb 56f
9:06pm 7 15 mph 1018.4mb 56f
9:00pm 7 18 mph 1018.5mb 56f
8:54pm 7 15 mph 1018.1mb 56f
8:48pm 8 15 mph 1018.1mb 56f
8:36pm 6 14 mph 1017.3mb 56f
8:30pm 5 10 mph 1017.1mb 56f
8:24pm 5 10 mph 1016.8mb 56f
8:18pm 2 13 mph 1016.6mb 56f
8:12pm 5 13 mph 1016.7mb 56f
8:06pm 5 15 mph 1017.1mb 56f
8:00pm 5 14 mph 1017.5mb 56f
7:54pm 7 16 mph 1017.5mb 56f
7:48pm 3 13 mph 1017.2mb 56f
7:36pm 5 11 mph 1016.6mb 56f
7:30pm 5 13 mph 1016.8mb 56f
7:24pm 6 14 mph 1016.7mb 56f
7:18pm 5 14 mph 1016.7mb 56f
7:12pm 6 16 mph 1016.8mb 56f
7:06pm 6 11 mph 1016.9mb 56f
7:00pm 5 14 mph 1016.9mb 56f
6:54pm 5 15 mph 1016.9mb 56f
6:48pm 3 17 mph 1017.2mb 56f
6:36pm 5 11 mph 1017.3mb 56f
6:30pm 5 10 mph 1017.2mb 56f
6:24pm 2 14 mph 1017.3mb 56f
6:18pm 6 13 mph 1017.3mb 56f
6:12pm 7 15 mph 1017.5mb 56f
6:06pm 5 13 mph 1017.7mb 56f
6:00pm 7 15 mph 1017.7mb 56f
5:54pm 6 16 mph 1017.8mb 56f
5:48pm 7 20 mph 1017.7mb 56f
5:36pm 7 15 mph 1017.4mb 56f
5:30pm 8 14 mph 1017.6mb 56f
5:24pm 6 14 mph 1018mb 56f
5:18pm 6 17 mph 1018mb 56f
5:12pm 6 14 mph - -
5:06pm 6 13 mph 1018mb 56f
5:00pm 6 15 mph - -
4:54pm 5 11 mph 1018.2mb 56f
4:48pm 6 14 mph 1018.1mb 56f
4:36pm 5 14 mph 1018.3mb 56f
4:30pm 7 13 mph - -
4:24pm 5 14 mph 1018.4mb 56f
4:18pm 3 15 mph 1018.3mb 56f
4:12pm 7 14 mph 1018.4mb 56f
4:06pm 8 14 mph 1018.4mb 56f
4:00pm 6 11 mph 1018.2mb 56f
3:54pm 2 9 mph 1018.3mb 56f
3:48pm 3 10 mph 1018.1mb 56f
3:36pm 5 9 mph 1018.2mb 56f
3:30pm 3 13 mph 1018.3mb 56f
3:24pm 6 10 mph 1018.3mb 56f
3:18pm 2 10 mph 1018.3mb 56f
3:12pm 2 10 mph 1018.1mb 56f
3:06pm 3 9 mph 1018.3mb 56f
3:00pm 2 13 mph - -
2:54pm 5 14 mph 1018.3mb 56f
2:48pm 5 11 mph 1018.5mb 56f
2:36pm 5 15 mph 1018.6mb 56f
2:30pm 2 11 mph 1018.6mb 56f
2:24pm 5 16 mph 1018.6mb 56f
2:18pm 6 10 mph 1018.8mb 56f
2:12pm 8 16 mph - -
2:06pm 3 14 mph 1019mb 56f
2:00pm 3 15 mph 1019.2mb 56f
1:54pm 5 15 mph 1019.1mb 56f
1:48pm 6 13 mph 1019.3mb 56f
1:36pm 5 11 mph 1019.4mb 56f
1:30pm 2 7 mph 1019.3mb 56f
1:24pm 3 8 mph 1019.3mb 56f
1:18pm 2 8 mph 1019.4mb 56f
1:12pm 3 10 mph 1019.3mb 56f
1:06pm 5 11 mph 1019.4mb 56f
1:00pm 2 6 mph 1019.7mb 56f
12:54pm 3 8 mph 1019.4mb 56f
12:48pm 5 13 mph 1019.6mb 56f
12:36pm 2 11 mph 1019.8mb 56f
12:30pm 3 11 mph 1019.9mb 56f
12:24pm 3 6 mph 1020.2mb 56f
12:18pm 2 7 mph 1020.2mb 56f
12:12pm 2
mph
1020.4mb 56f
12:06pm  -  2 mph 1020.5mb 56f
12:00pm 1 2 mph - -
11:54am 1
mph
1020.6mb 56f
11:48am  -  2 mph 1020.7mb 56f
11:36am  -  2 mph 1020.9mb 56f
11:30am 1 2 mph 1021mb 56f
11:24am  -  1 mph 1021.1mb 56f
11:18am  -  1 mph 1021.3mb 56f
11:12am 2 5 mph 1021.3mb 55f
11:06am  -  3 mph 1021.4mb 55f
11:00am 2 5 mph 1021.2mb 55f
10:54am 1 3 mph 1021.3mb 55f
10:48am 2 5 mph 1021.4mb 55f
10:36am 1 5 mph 1021.4mb 55f
10:30am 2 5 mph 1021.5mb 55f
10:24am  -  6 mph 1021.6mb 55f
10:18am 3 6 mph 1021.5mb 55f
10:12am 2 5 mph 1021.6mb 55f
10:06am 2 7 mph 1021.5mb 55f
10:00am 3 6 mph 1021.4mb 55f
9:54am 2 6 mph 1021.4mb 55f
9:48am 3 7 mph 1021.4mb 55f
9:36am 2 8 mph 1021.4mb 55f
9:30am 3 7 mph 1021.2mb 55f
9:24am 3 7 mph 1021.2mb 55f
9:18am 2 7 mph 1021.4mb 55f
9:12am 3 7 mph 1021.2mb 55f
9:06am 3 9 mph 1021.4mb 55f
9:00am 5 8 mph 1021.5mb 55f
8:54am 5 9 mph 1021.4mb 56f
8:48am 3 6 mph 1021.5mb 56f
8:36am 5 10 mph 1021.6mb 56f
8:30am 5 9 mph 1021.5mb 56f
8:24am 5 7 mph 1021.6mb 56f
8:18am 5 8 mph 1021.6mb 56f
8:12am 5 8 mph 1021.7mb 56f
8:06am 5 8 mph 1021.8mb 56f
8:00am 3 7 mph - -
7:54am 3 9 mph 1021.9mb 56f
7:48am 3 10 mph 1022.1mb 56f
7:36am 3 6 mph 1022.6mb 56f
7:30am 3 8 mph 1022.8mb 56f
7:24am 2 6 mph 1022.9mb 56f
7:18am 3 8 mph 1023mb 56f
7:12am 3 8 mph 1023.1mb 56f
7:06am 3 8 mph 1023.1mb 56f
7:00am 3 6 mph 1023mb 56f
6:54am 1 6 mph 1023mb 56f
6:48am 2 6 mph 1023.1mb 56f
6:36am  -  5 mph 1023mb 56f
6:30am 2 6 mph 1022.9mb 56f
6:24am 2 6 mph 1023mb 56f
6:18am 2 6 mph 1022.9mb 56f
6:12am 1 7 mph 1023mb 56f
6:06am 3 6 mph 1023mb 56f
6:00am 3 10 mph 1022.9mb 56f
5:54am 3 7 mph 1023mb 56f
5:48am 3 6 mph 1023.2mb 56f
5:36am 2 6 mph 1023.5mb 56f
5:30am 3 8 mph 1023.7mb 56f
5:24am 2 8 mph 1023.8mb 56f
5:18am 3 6 mph 1023.8mb 56f
5:12am 2 5 mph 1023.9mb 56f
5:06am 1 3 mph 1024mb 56f
5:00am 2 3 mph 1024.1mb 56f
4:54am  -  1 mph 1024.4mb 56f
4:48am  -  1 mph 1024.5mb 56f
4:36am 2 3 mph 1024.4mb 56f
4:30am  -  2 mph 1024.3mb 56f
4:24am 1 5 mph 1024.4mb 56f
4:18am  -  3 mph 1024.5mb 56f
4:12am 2 3 mph 1024.5mb 56f
4:06am 2 6 mph 1024.6mb 56f
4:00am 1 5 mph 1024.6mb 56f
3:54am 1 5 mph 1024.7mb 56f
3:48am 1 3 mph 1024.8mb 56f
3:36am 1 5 mph 1025mb 56f
3:30am 1 3 mph 1025mb 56f
3:24am 1 3 mph 1024.9mb 56f
3:18am 2 3 mph 1025mb 56f
3:12am 1 3 mph 1025.1mb 56f
3:06am 1 2 mph 1025.2mb 56f
3:00am  -  2 mph 1025.4mb 56f
2:54am  -  3 mph 1025.4mb 56f
2:48am 1 3 mph 1025.5mb 56f
2:36am 1 3 mph 1025.6mb 56f
2:30am 1 2 mph 1025.7mb 56f
2:24am  -  3 mph 1025.8mb 56f
2:18am  -  3 mph 1025.9mb 56f
2:12am 1 3 mph 1025.9mb 56f
2:06am 1 3 mph 1026mb 56f
2:00am 2 6 mph 1025.9mb 56f
1:54am 3 6 mph 1025.8mb 56f
1:48am 2 6 mph 1025.8mb 56f
1:36am 2 5 mph 1026.1mb 56f
1:30am 2 7 mph 1026.3mb 56f
1:24am 2 3 mph 1026.3mb 56f
1:18am 2 6 mph 1026.4mb 56f
1:12am 1 3 mph 1026.4mb 56f
1:06am 2 5 mph 1026.5mb 56f
1:00am  -  5 mph 1026.4mb 56f
12:54am 2 5 mph 1026.5mb 56f
12:48am 1 3 mph 1026.5mb 56f
12:36am 2
mph
1026.7mb 56f
12:30am 1 3 mph 1026.8mb 56f
12:24am 2
mph
1026.9mb 56f
12:18am  -  1 mph 1027mb 55f
12:12am  -  2 mph 1027mb 55f
12:06am  -  1 mph 1027mb 55f
12:00am  -  mph 1027mb 55f
Tue 11/25 11:54pm  -  mph 1026.9mb 55f
11:48pm  -  2 mph 1027mb 55f
11:36pm 2 3 mph 1027mb 55f
11:30pm 2
mph
1027mb 55f
11:24pm 2 3 mph 1027.1mb 55f
11:18pm  -  2 mph 1027mb 55f
11:12pm  -  2 mph 1027mb 55f
11:06pm  -  2 mph 1027.1mb 55f
11:00pm 1 2 mph 1027.2mb 55f
10:54pm 1 2 mph 1027.2mb 55f
10:48pm  -  1 mph 1027.2mb 55f
10:36pm 2 3 mph 1027.2mb 55f
10:30pm 1 2 mph 1027.1mb 55f
10:24pm 1 2 mph 1027.1mb 55f
10:18pm  -  mph 1027.1mb 55f
10:12pm  -  mph 1027.2mb 55f
10:06pm  -  1 mph 1027.3mb 55f
10:00pm  -  1 mph 1027.2mb 55f
9:54pm  -  1 mph 1027.3mb 55f
9:48pm  -  1 mph 1027.2mb 55f
9:36pm  -  1 mph 1027.2mb 56f
9:30pm  -  2 mph 1027.2mb 56f
9:24pm  -  2 mph 1027.4mb 56f
9:18pm  -  2 mph 1027.3mb 56f
9:12pm 1 2 mph 1027.4mb 56f
9:06pm 1 2 mph 1027.3mb 56f
9:00pm 2
mph
1027.3mb 56f
8:54pm 1 2 mph 1027.3mb 56f
8:48pm  -  1 mph 1027.2mb 56f
8:36pm 1 2 mph 1027.3mb 56f
8:30pm 1 2 mph 1027.3mb 56f
8:24pm 1 2 mph 1027.3mb 56f
8:18pm 1 2 mph 1027.4mb 56f
8:12pm 2 3 mph 1027.3mb 56f
8:06pm  -  1 mph 1027.2mb 56f
8:00pm 1 2 mph 1027.2mb 56f
7:54pm  -  6 mph 1027.3mb 56f
7:48pm 2 8 mph 1027.3mb 56f
7:36pm 1 3 mph 1027.5mb 56f
7:30pm 2 5 mph 1027.7mb 56f
7:24pm 2 5 mph 1027.8mb 56f
7:18pm 2 3 mph 1027.9mb 56f
7:12pm 2 3 mph 1028mb 56f
7:06pm 2 5 mph 1028.1mb 56f
7:00pm 1 3 mph 1028.1mb 56f
6:54pm 2 3 mph 1028.1mb 56f
6:48pm  -  2 mph 1028.2mb 56f
6:36pm 1 3 mph 1028.5mb 56f
6:30pm 3 5 mph 1028.4mb 56f
6:24pm 1 3 mph 1028.4mb 56f
6:18pm  -  2 mph 1028.5mb 56f
6:12pm  -  3 mph 1028.6mb 56f
6:06pm 2 3 mph 1028.5mb 56f
6:00pm  -  1 mph 1028.5mb 56f
5:54pm  -  1 mph 1028.6mb 56f
5:48pm  -  2 mph 1028.5mb 56f
5:36pm 1 2 mph 1028.6mb 56f
5:30pm 1 2 mph 1028.7mb 56f
5:24pm  -  1 mph 1028.7mb 56f
5:18pm  -  1 mph 1028.8mb 56f
5:12pm  -  2 mph 1028.9mb 56f
5:06pm  -  2 mph 1028.9mb 56f
5:00pm  -  5 mph 1028.8mb 56f
4:54pm 2 7 mph 1028.9mb 56f
4:48pm 2 3 mph 1029mb 56f
4:36pm 2 3 mph 1028.6mb 56f
4:30pm  -  2 mph 1028.6mb 56f
4:24pm  -  2 mph 1028.5mb 56f
4:18pm  -  2 mph 1028.6mb 56f
4:12pm  -  3 mph 1028.5mb 56f
4:06pm 3 6 mph 1028.5mb 56f
4:00pm 1 3 mph 1028.5mb 56f
3:54pm 2 3 mph 1028.6mb 56f
3:48pm 1 5 mph 1028.5mb 56f
3:36pm 3 6 mph 1028.6mb 56f
3:30pm 3 7 mph 1028.6mb 56f
3:24pm 2 6 mph 1028.6mb 56f
3:18pm 2 8 mph 1028.6mb 56f
3:12pm 1 6 mph 1028.6mb 56f
3:06pm 2 5 mph 1028.5mb 56f
3:00pm 2 7 mph 1028.6mb 56f
2:54pm 2 6 mph 1028.7mb 56f
2:48pm 3 6 mph 1028.7mb 56f
2:36pm 2 5 mph 1028.7mb 56f
2:30pm 2 7 mph 1028.8mb 56f
2:24pm 3 6 mph 1028.7mb 56f
2:18pm 2 6 mph 1028.8mb 56f
2:12pm 2 5 mph 1028.8mb 56f
2:06pm 2 5 mph 1028.9mb 56f
2:00pm 2 8 mph 1029mb 56f
1:54pm 2 6 mph 1028.9mb 56f
1:48pm 2 8 mph 1029mb 56f
1:36pm 3 7 mph 1029.2mb 56f
1:30pm 3 8 mph 1029.2mb 56f
1:24pm 2 6 mph 1029.2mb 56f
1:18pm 3 7 mph 1029.3mb 56f
1:12pm 2 9 mph 1029.4mb 56f
1:06pm 5 9 mph 1029.5mb 56f
1:00pm 3 11 mph 1029.5mb 56f
12:54pm 2 11 mph 1029.6mb 56f
12:48pm 2 8 mph 1029.6mb 56f
12:36pm 5 9 mph 1029.7mb 56f
12:30pm 3 10 mph 1029.9mb 56f
12:24pm 5 14 mph 1030.1mb 56f
12:18pm 6 10 mph 1030mb 56f
12:12pm 3 11 mph 1030.1mb 56f
12:06pm 6 14 mph 1030.1mb 56f
12:00pm 7 14 mph 1030.1mb 56f
11:54am 2 8 mph 1030.2mb 56f
11:48am 6 13 mph 1030.2mb 56f
11:36am 6 10 mph 1030.3mb 56f
11:30am 5 10 mph 1030.3mb 56f
11:24am 6 10 mph 1030.4mb 56f
11:18am 6 14 mph 1030.5mb 56f
11:12am 3 9 mph 1030.6mb 56f
11:06am 5 9 mph 1030.6mb 56f
11:00am 6 11 mph 1030.7mb 56f
10:54am 3 8 mph 1030.8mb 56f
10:48am 2 6 mph 1030.7mb 56f
10:36am 2 9 mph 1030.8mb 56f
10:30am 3 11 mph 1030.7mb 56f
10:24am 3 8 mph 1030.7mb 55f
10:18am 3 6 mph 1030.8mb 55f
10:12am 3 7 mph 1030.7mb 55f
10:06am 2 9 mph 1030.6mb 55f
10:00am 3 7 mph 1030.5mb 55f
9:54am 2 7 mph 1030.3mb 55f
9:48am 2 8 mph 1030.4mb 55f
9:36am 2 9 mph 1030.3mb 55f
9:30am 5 9 mph 1030.4mb 55f
9:24am 5 9 mph 1030.4mb 55f
9:18am 5 13 mph 1030.4mb 55f
9:12am 3 8 mph 1030.4mb 55f
9:06am 5 9 mph 1030.3mb 55f
9:00am 5 10 mph 1030.3mb 55f
8:54am 5 8 mph 1030.3mb 55f
8:48am 3 13 mph 1030.4mb 55f